Time;durP1;ratioP1;P1;durP2;ratioP2;P2;SDS_P1;SDS_P2;PMS_P1;PMS_P2;Temp;Humidity;BMP_temperature;BMP_pressure;BME280_temperature;BME280_humidity;BME280_pressure;Samples;Min_cycle;Max_cycle;Signal;HPM_P1;HPM_P2
2022/07/24 00:01:57;;;;;;;17.20;11.35;;;;;;;;;;5016826;28;20029;-78
2022/07/24 00:04:23;;;;;;;16.05;10.93;;;;;;;;;;5021820;28;20022;-78
2022/07/24 00:06:49;;;;;;;12.27;10.07;;;;;;;;;;5029916;28;20385;-78
2022/07/24 00:09:15;;;;;;;14.50;10.07;;;;;;;;;;5029992;28;20059;-77
2022/07/24 00:11:41;;;;;;;13.98;9.85;;;;;;;;;;5031161;28;20465;-76
2022/07/24 00:14:07;;;;;;;18.13;8.90;;;;;;;;;;5031863;28;20512;-78
2022/07/24 00:16:33;;;;;;;12.68;11.32;;;;;;;;;;5030077;28;20021;-75
2022/07/24 00:18:59;;;;;;;17.00;9.55;;;;;;;;;;5031879;28;20057;-75
2022/07/24 00:21:25;;;;;;;16.75;9.70;;;;;;;;;;5030857;28;20036;-76
2022/07/24 00:23:51;;;;;;;18.05;11.02;;;;;;;;;;5030862;28;20075;-77
2022/07/24 00:26:17;;;;;;;20.95;11.23;;;;;;;;;;5031965;28;20031;-77
2022/07/24 00:28:43;;;;;;;15.27;10.85;;;;;;;;;;5031545;28;20025;-78
2022/07/24 00:31:10;;;;;;;16.08;13.57;;;;;;;;;;5031863;28;20021;-78
2022/07/24 00:33:36;;;;;;;15.80;11.18;;;;;;;;;;5030522;28;20021;-78
2022/07/24 00:36:02;;;;;;;13.63;11.30;;;;;;;;;;5031622;28;20101;-77
2022/07/24 00:38:28;;;;;;;12.73;11.43;;;;;;;;;;5031282;28;20489;-78
2022/07/24 00:40:54;;;;;;;14.25;10.75;;;;;;;;;;5028095;28;20147;-76
2022/07/24 00:43:21;;;;;;;12.70;9.40;;;;;;;;;;5028801;28;20033;-75
2022/07/24 00:45:47;;;;;;;12.50;10.45;;;;;;;;;;5029272;28;20021;-76
2022/07/24 00:48:13;;;;;;;13.07;10.07;;;;;;;;;;5029844;28;20025;-77
2022/07/24 00:50:40;;;;;;;15.32;10.07;;;;;;;;;;5039282;28;20025;-76
2022/07/24 00:53:06;;;;;;;13.32;10.25;;;;;;;;;;5029822;28;20026;-76
2022/07/24 00:55:35;;;;;;;13.93;10.32;;;;;;;;;;5030443;28;20029;-77
2022/07/24 00:58:01;;;;;;;12.23;10.93;;;;;;;;;;5026692;28;20606;-76
2022/07/24 01:00:27;;;;;;;15.60;11.02;;;;;;;;;;5029729;28;20502;-75
2022/07/24 01:02:53;;;;;;;21.90;11.60;;;;;;;;;;5029702;28;20040;-77
2022/07/24 01:05:19;;;;;;;15.05;11.85;;;;;;;;;;5029970;28;20436;-75
2022/07/24 01:07:46;;;;;;;16.77;11.38;;;;;;;;;;5028955;28;20018;-75
2022/07/24 01:10:12;;;;;;;25.80;17.35;;;;;;;;;;5029968;28;20052;-76
2022/07/24 01:12:39;;;;;;;21.30;15.02;;;;;;;;;;5030333;28;20116;-75
2022/07/24 01:15:06;;;;;;;18.55;11.95;;;;;;;;;;5029728;28;20112;-74
2022/07/24 01:17:32;;;;;;;35.08;27.55;;;;;;;;;;5028268;28;20072;-75
2022/07/24 01:19:59;;;;;;;42.42;25.55;;;;;;;;;;5030077;28;20076;-75
2022/07/24 01:22:25;;;;;;;19.63;13.05;;;;;;;;;;5029566;28;20036;-74
2022/07/24 01:24:54;;;;;;;16.92;11.63;;;;;;;;;;5028632;28;20113;-76
2022/07/24 01:27:21;;;;;;;21.38;11.50;;;;;;;;;;5027360;28;20033;-74
2022/07/24 01:29:47;;;;;;;19.08;11.00;;;;;;;;;;5029151;28;20049;-75
2022/07/24 01:32:13;;;;;;;14.73;10.60;;;;;;;;;;5029547;28;20022;-75
2022/07/24 01:34:39;;;;;;;18.08;11.70;;;;;;;;;;5028880;28;20037;-76
2022/07/24 01:37:05;;;;;;;14.07;10.88;;;;;;;;;;5029060;28;20104;-75
2022/07/24 01:39:31;;;;;;;22.67;11.73;;;;;;;;;;5028735;28;20040;-75
2022/07/24 01:41:57;;;;;;;20.23;11.60;;;;;;;;;;5029440;28;20100;-75
2022/07/24 01:44:23;;;;;;;17.05;10.82;;;;;;;;;;5029365;28;20025;-77
2022/07/24 01:46:49;;;;;;;15.73;11.70;;;;;;;;;;5028852;28;20025;-76
2022/07/24 01:49:15;;;;;;;16.00;11.50;;;;;;;;;;5028951;28;20060;-75
2022/07/24 01:51:41;;;;;;;15.93;11.10;;;;;;;;;;5038839;28;20362;-75
2022/07/24 01:54:07;;;;;;;13.75;10.60;;;;;;;;;;5029156;28;20037;-75
2022/07/24 01:56:33;;;;;;;11.70;10.55;;;;;;;;;;5028936;28;20401;-77
2022/07/24 01:58:59;;;;;;;24.15;14.73;;;;;;;;;;5029895;28;20063;-75
2022/07/24 02:01:26;;;;;;;15.23;13.73;;;;;;;;;;5028243;28;20354;-76
2022/07/24 02:03:52;;;;;;;16.63;13.68;;;;;;;;;;5031130;28;20029;-75
2022/07/24 02:06:19;;;;;;;21.15;13.70;;;;;;;;;;5030648;28;20029;-75
2022/07/24 02:08:45;;;;;;;22.35;15.75;;;;;;;;;;5033404;28;20164;-75
2022/07/24 02:11:11;;;;;;;20.58;14.52;;;;;;;;;;5033543;28;20025;-78
2022/07/24 02:13:38;;;;;;;20.80;17.17;;;;;;;;;;5031556;28;20112;-74
2022/07/24 02:16:04;;;;;;;20.65;12.25;;;;;;;;;;5029772;28;20501;-79
2022/07/24 02:18:30;;;;;;;17.50;11.93;;;;;;;;;;5032954;28;20032;-77
2022/07/24 02:20:56;;;;;;;19.17;12.40;;;;;;;;;;5032973;28;20029;-77
2022/07/24 02:23:22;;;;;;;14.05;12.15;;;;;;;;;;5033530;28;20026;-78
2022/07/24 02:25:49;;;;;;;18.85;12.27;;;;;;;;;;5032186;28;20025;-75
2022/07/24 02:28:15;;;;;;;15.02;12.18;;;;;;;;;;5032196;28;20040;-78
2022/07/24 02:30:42;;;;;;;14.20;12.05;;;;;;;;;;5033077;28;20024;-78
2022/07/24 02:33:08;;;;;;;19.83;12.35;;;;;;;;;;5032622;28;20060;-77
2022/07/24 02:35:34;;;;;;;16.45;12.82;;;;;;;;;;5033147;28;20477;-78
2022/07/24 02:38:01;;;;;;;15.60;12.35;;;;;;;;;;5018442;28;20380;-79
2022/07/24 02:40:27;;;;;;;13.80;12.07;;;;;;;;;;5033959;28;20021;-77
2022/07/24 02:42:53;;;;;;;17.85;12.60;;;;;;;;;;5033465;28;20032;-78
2022/07/24 02:45:19;;;;;;;15.43;11.90;;;;;;;;;;5033473;28;20017;-77
2022/07/24 02:47:49;;;;;;;24.85;12.40;;;;;;;;;;5033521;28;20021;-76
2022/07/24 02:50:16;;;;;;;19.23;11.93;;;;;;;;;;5032991;28;20112;-77
2022/07/24 02:52:42;;;;;;;16.45;13.02;;;;;;;;;;5043575;28;20021;-75
2022/07/24 02:55:08;;;;;;;14.88;13.02;;;;;;;;;;5032742;28;20025;-78
2022/07/24 02:57:34;;;;;;;17.65;12.93;;;;;;;;;;5033639;28;20044;-77
2022/07/24 03:00:00;;;;;;;23.60;13.70;;;;;;;;;;5033155;28;20026;-77
2022/07/24 03:02:26;;;;;;;21.38;16.27;;;;;;;;;;5033217;28;20026;-75
2022/07/24 03:04:52;;;;;;;27.38;13.63;;;;;;;;;;5032699;28;20075;-77
2022/07/24 03:07:18;;;;;;;18.30;12.38;;;;;;;;;;5033125;28;20033;-78
2022/07/24 03:09:44;;;;;;;29.23;18.48;;;;;;;;;;5032847;28;20053;-77
2022/07/24 03:12:10;;;;;;;17.00;14.05;;;;;;;;;;5032426;28;20095;-78
2022/07/24 03:14:39;;;;;;;16.80;13.52;;;;;;;;;;5032005;28;20420;-76
2022/07/24 03:17:05;;;;;;;19.63;13.32;;;;;;;;;;5030769;28;20175;-77
2022/07/24 03:19:31;;;;;;;15.57;12.15;;;;;;;;;;5032657;28;20384;-78
2022/07/24 03:21:57;;;;;;;16.23;12.20;;;;;;;;;;5017506;28;20026;-76
2022/07/24 03:24:23;;;;;;;20.77;13.45;;;;;;;;;;5032531;28;20108;-76
2022/07/24 03:26:49;;;;;;;16.05;11.77;;;;;;;;;;5032627;28;20057;-76
2022/07/24 03:29:15;;;;;;;15.80;12.00;;;;;;;;;;5032555;28;20032;-77
2022/07/24 03:31:41;;;;;;;16.35;12.07;;;;;;;;;;5031549;28;20435;-78
2022/07/24 03:34:07;;;;;;;13.70;11.57;;;;;;;;;;5032537;28;20029;-76
2022/07/24 03:36:34;;;;;;;13.60;11.80;;;;;;;;;;5032825;28;20523;-78
2022/07/24 03:39:00;;;;;;;14.50;12.60;;;;;;;;;;5018924;28;20029;-76
2022/07/24 03:41:26;;;;;;;18.55;12.95;;;;;;;;;;5031494;28;20021;-79
2022/07/24 03:43:52;;;;;;;14.65;13.18;;;;;;;;;;5032638;28;20100;-77
2022/07/24 03:46:18;;;;;;;16.85;11.95;;;;;;;;;;5032289;28;20024;-77
2022/07/24 03:48:44;;;;;;;18.27;12.35;;;;;;;;;;5033002;28;20022;-79
2022/07/24 03:51:10;;;;;;;13.85;12.43;;;;;;;;;;5031102;28;20069;-79
2022/07/24 03:53:36;;;;;;;13.65;11.10;;;;;;;;;;5042341;28;20018;-77
2022/07/24 03:56:06;;;;;;;15.50;11.40;;;;;;;;;;5032043;28;20450;-78
2022/07/24 03:58:32;;;;;;;13.25;11.38;;;;;;;;;;5032204;28;20078;-77
2022/07/24 04:00:58;;;;;;;13.38;10.85;;;;;;;;;;5032217;28;20389;-78
2022/07/24 04:03:24;;;;;;;14.43;11.80;;;;;;;;;;5031941;28;20021;-79
2022/07/24 04:05:51;;;;;;;15.45;11.85;;;;;;;;;;5032346;28;20017;-76
2022/07/24 04:08:17;;;;;;;18.52;12.95;;;;;;;;;;5030032;28;20050;-77
2022/07/24 04:10:43;;;;;;;15.35;11.73;;;;;;;;;;5030674;28;20072;-75
2022/07/24 04:13:09;;;;;;;14.07;12.45;;;;;;;;;;5032197;28;20029;-77
2022/07/24 04:15:35;;;;;;;14.75;12.77;;;;;;;;;;5030382;28;20084;-78
2022/07/24 04:18:01;;;;;;;18.15;12.45;;;;;;;;;;5031898;28;20112;-78
2022/07/24 04:20:27;;;;;;;20.50;13.10;;;;;;;;;;5031530;28;20026;-79
2022/07/24 04:22:53;;;;;;;15.23;12.82;;;;;;;;;;5031610;28;20052;-79
2022/07/24 04:25:19;;;;;;;20.77;9.43;;;;;;;;;;5032071;28;20143;-78
2022/07/24 04:27:46;;;;;;;14.98;11.23;;;;;;;;;;5030123;28;20504;-80
2022/07/24 04:30:13;;;;;;;17.13;12.00;;;;;;;;;;5030370;28;20098;-79
2022/07/24 04:32:39;;;;;;;9.80;8.57;;;;;;;;;;5030362;28;20215;-79
2022/07/24 04:35:06;;;;;;;10.52;9.32;;;;;;;;;;5030693;28;20033;-78
2022/07/24 04:37:32;;;;;;;12.05;9.60;;;;;;;;;;5031602;28;20557;-78
2022/07/24 04:39:58;;;;;;;14.52;9.27;;;;;;;;;;5028512;28;20024;-76
2022/07/24 04:42:24;;;;;;;17.48;9.48;;;;;;;;;;5031273;28;20385;-76
2022/07/24 04:44:50;;;;;;;15.63;11.65;;;;;;;;;;5031242;28;20016;-76
2022/07/24 04:47:16;;;;;;;16.38;11.00;;;;;;;;;;5031617;28;20463;-75
2022/07/24 04:49:42;;;;;;;18.13;10.07;;;;;;;;;;5029945;28;20025;-76
2022/07/24 04:52:08;;;;;;;15.05;11.75;;;;;;;;;;5030118;28;20013;-78
2022/07/24 04:54:34;;;;;;;15.27;9.75;;;;;;;;;;5026474;28;20068;-76
2022/07/24 04:57:00;;;;;;;16.40;10.88;;;;;;;;;;5032197;28;20025;-78
2022/07/24 04:59:26;;;;;;;16.98;10.57;;;;;;;;;;5031373;28;20053;-76
2022/07/24 05:01:52;;;;;;;14.82;10.93;;;;;;;;;;5031435;28;20026;-79
2022/07/24 05:04:18;;;;;;;18.33;10.65;;;691.90;640.00;;;;;;5030382;28;20071;-78
2022/07/24 05:06:46;;;;;;;14.20;11.48;;;691.90;640.00;;;;;;5030886;28;20026;-77
2022/07/24 05:09:12;;;;;;;14.20;10.18;;;691.80;640.00;;;;;;5031456;28;20083;-78
2022/07/24 05:11:37;;;;;;;23.30;11.98;;;692.00;640.00;;;;;;5031745;28;20104;-76
2022/07/24 05:14:03;;;;;;;18.40;11.15;;;692.10;640.00;;;;;;5030006;28;20040;-79
2022/07/24 05:16:29;;;;;;;19.92;12.05;;;692.10;640.00;;;;;;5030488;28;20097;-77
2022/07/24 05:18:54;;;;;;;15.52;11.40;;;692.10;665.60;;;;;;5031117;28;20473;-77
2022/07/24 05:21:20;;;;;;;16.88;10.35;;;692.00;665.60;;;;;;5030760;28;20104;-77
2022/07/24 05:23:46;;;;;;;15.90;10.63;;;692.10;640.00;;;;;;5031924;28;20048;-76
2022/07/24 05:26:12;;;;;;;15.52;11.80;;;;;;;;;;5031753;28;20096;-78
2022/07/24 05:28:38;;;;;;;23.77;11.10;;;;;;;;;;5017115;28;20481;-77
2022/07/24 05:31:04;;;;;;;19.63;11.52;;;;;;;;;;5031343;28;20437;-77
2022/07/24 05:33:31;;;;;;;20.80;11.43;;;;;;;;;;5031421;28;20057;-77
2022/07/24 05:35:57;;;;;;;23.23;11.60;;;;;;;;;;5031148;28;20026;-79
2022/07/24 05:38:23;;;;;;;15.05;11.18;;;;;;;;;;5031897;28;20028;-78
2022/07/24 05:40:49;;;;;;;17.08;11.00;;;;;;;;;;5034367;28;20092;-77
2022/07/24 05:43:16;;;;;;;25.98;13.07;;;;;;;;;;5034788;28;20093;-76
2022/07/24 05:45:42;;;;;;;27.15;13.50;;;;;;;;;;5035792;28;20018;-77
2022/07/24 05:48:08;;;;;;;20.25;12.57;;;;;;;;;;5034377;28;20025;-77
2022/07/24 05:50:34;;;;;;;20.75;11.65;;;;;;;;;;5034767;28;20045;-78
2022/07/24 05:53:00;;;;;;;19.98;11.40;;;;;;;;;;5033312;28;20048;-78
2022/07/24 05:55:27;;;;;;;14.73;11.35;;;;;;;;;;5043239;28;20036;-77
2022/07/24 05:57:53;;;;;;;21.83;15.52;;;;;;;;;;5036086;28;20112;-77
2022/07/24 06:00:20;;;;;;;20.60;13.52;;;;;;;;;;5034582;28;20411;-78
2022/07/24 06:02:46;;;;;;;17.45;12.43;;;;;;;;;;5034607;28;20029;-76
2022/07/24 06:05:13;;;;;;;21.70;12.98;;;;;;;;;;5033251;28;20018;-79
2022/07/24 06:07:39;;;;;;;17.13;12.70;;;;;;;;;;5034487;28;20022;-78
2022/07/24 06:10:05;;;;;;;19.52;12.18;;;;;;;;;;5020553;28;20528;-76
2022/07/24 06:12:31;;;;;;;13.68;9.38;;;;;;;;;;5034505;28;20365;-78
2022/07/24 06:14:57;;;;;;;20.90;12.38;;;;;;;;;;5033973;28;20378;-80
2022/07/24 06:17:24;;;;;;;18.13;11.15;;;;;;;;;;5032719;28;20057;-76
2022/07/24 06:19:50;;;;;;;15.93;12.95;;;;;;;;;;5034047;28;20102;-76
2022/07/24 06:22:16;;;;;;;20.83;12.23;;;;;;;;;;5032656;28;20025;-77
2022/07/24 06:24:42;;;;;;;17.40;10.25;;;;;;;;;;5034087;28;20048;-78
2022/07/24 06:27:09;;;;;;;16.70;12.45;;;;;;;;;;5032692;28;20045;-76
2022/07/24 06:29:35;;;;;;;20.00;11.73;;;;;;;;;;5032692;28;20105;-79
2022/07/24 06:32:01;;;;;;;16.67;11.35;;;;;;;;;;5019250;28;20019;-77
2022/07/24 06:34:27;;;;;;;18.83;11.30;;;;;;;;;;5032101;28;20496;-77
2022/07/24 06:36:53;;;;;;;15.80;11.70;;;;;;;;;;5034152;28;20048;-76
2022/07/24 06:39:19;;;;;;;14.48;9.50;;;;;;;;;;5033766;28;20026;-79
2022/07/24 06:41:45;;;;;;;17.60;12.63;;;;;;;;;;5033375;28;20025;-79
2022/07/24 06:44:11;;;;;;;12.52;11.25;;;;;;;;;;5033392;28;20461;-76
2022/07/24 06:46:37;;;;;;;16.60;11.85;;;;;;;;;;5031032;28;20029;-77
2022/07/24 06:49:03;;;;;;;19.27;11.43;;;;;;;;;;5032904;28;20530;-77
2022/07/24 06:51:29;;;;;;;16.42;11.57;;;;;;;;;;5033411;28;20104;-77
2022/07/24 06:53:55;;;;;;;18.60;12.73;;;;;;;;;;5031898;28;20036;-78
2022/07/24 06:56:21;;;;;;;17.05;11.52;;;;;;;;;;5042759;28;20097;-77
2022/07/24 06:58:47;;;;;;;14.88;10.95;;;;;;;;;;5034797;28;20026;-77
2022/07/24 07:01:14;;;;;;;23.50;12.45;;;;;;;;;;5032791;28;20025;-77
2022/07/24 07:03:42;;;;;;;17.95;13.18;;;;;;;;;;5032635;28;20373;-78
2022/07/24 07:06:08;;;;;;;35.92;14.07;;;;;;;;;;5032444;28;20088;-79
2022/07/24 07:08:35;;;;;;;22.55;12.85;;;;;;;;;;5033102;28;20129;-77
2022/07/24 07:11:01;;;;;;;22.88;13.57;;;;;;;;;;5033136;28;20021;-77
2022/07/24 07:13:27;;;;;;;28.30;12.80;;;;;;;;;;5031881;28;20441;-77
2022/07/24 07:15:53;;;;;;;19.63;12.55;;;;;;;;;;5032835;28;20037;-77
2022/07/24 07:18:19;;;;;;;22.83;12.55;;;;;;;;;;5032728;28;20021;-77
2022/07/24 07:20:45;;;;;;;25.85;13.38;;;;;;;;;;5020940;28;20026;-79
2022/07/24 07:23:11;;;;;;;17.10;13.02;;;;;;;;;;5031090;28;20497;-78
2022/07/24 07:25:37;;;;;;;14.45;10.73;;;;;;;;;;5021891;28;20615;-77
2022/07/24 07:28:04;;;;;;;19.02;13.13;;;;;;;;;;5015987;28;20384;-78
2022/07/24 07:30:30;;;;;;;21.45;12.70;;;;;;;;;;5033409;28;20029;-76
2022/07/24 07:32:56;;;;;;;16.83;11.65;;;;;;;;;;5033026;28;20540;-77
2022/07/24 07:35:22;;;;;;;13.13;11.73;;;;;;;;;;5028475;28;20061;-77
2022/07/24 07:37:49;;;;;;;16.10;11.60;;;;;;;;;;5026357;28;20021;-78
2022/07/24 07:40:15;;;;;;;21.95;11.65;;;;;;;;;;5033133;28;20536;-77
2022/07/24 07:42:41;;;;;;;16.13;11.82;;;;;;;;;;5032887;28;20021;-78
2022/07/24 07:45:08;;;;;;;17.65;11.50;;;;;;;;;;5033095;28;20010;-77
2022/07/24 07:47:36;;;;;;;15.80;12.48;;;;;;;;;;5032815;28;20180;-77
2022/07/24 07:50:03;;;;;;;12.82;11.00;;;;;;;;;;5017727;28;20087;-77
2022/07/24 07:52:29;;;;;;;22.25;13.00;;;;;;;;;;5032716;28;20025;-77
2022/07/24 07:54:55;;;;;;;23.10;11.35;;;;;;;;;;5032285;28;20030;-78
2022/07/24 07:57:21;;;;;;;14.65;11.55;;;;;;;;;;5042722;28;20009;-77
2022/07/24 07:59:47;;;;;;;21.48;12.57;;;;;;;;;;5031230;28;20022;-77
2022/07/24 08:02:15;;;;;;;19.27;12.25;;;;;;;;;;5032167;28;20021;-77
2022/07/24 08:04:41;;;;;;;14.15;11.82;;;;;;;;;;5032589;28;20353;-77
2022/07/24 08:07:08;;;;;;;16.10;11.88;;;;;;;;;;5017235;28;20148;-77
2022/07/24 08:09:34;;;;;;;17.58;12.13;;;;;;;;;;5032328;28;20076;-77
2022/07/24 08:12:00;;;;;;;17.95;12.02;;;;;;;;;;5030805;28;20047;-77
2022/07/24 08:14:26;;;;;;;14.80;10.43;;;;;;;;;;5027811;28;20033;-77
2022/07/24 08:16:52;;;;;;;15.23;10.82;;;;;;;;;;5028665;28;20063;-78
2022/07/24 08:19:18;;;;;;;18.08;11.00;;;;;;;;;;5030649;28;20121;-77
2022/07/24 08:21:45;;;;;;;15.27;11.80;;;;;;;;;;5030514;28;20017;-77
2022/07/24 08:24:12;;;;;;;12.48;10.07;;;;;;;;;;5030448;28;20022;-76
2022/07/24 08:26:38;;;;;;;13.13;11.48;;;;;;;;;;5031845;28;20064;-75
2022/07/24 08:29:04;;;;;;;15.60;13.45;;;;;;;;;;5030609;28;20017;-78
2022/07/24 08:31:30;;;;;;;17.17;11.63;;;;;;;;;;5031646;28;20026;-76
2022/07/24 08:33:56;;;;;;;13.82;10.10;;;;;;;;;;5030360;28;20021;-76
2022/07/24 08:36:22;;;;;;;16.67;11.57;;;;;;;;;;5031921;28;20147;-77
2022/07/24 08:38:49;;;;;;;16.65;11.82;;;;;;;;;;5030357;28;20021;-77
2022/07/24 08:41:15;;;;;;;13.50;10.68;;;;;;;;;;5031660;28;20020;-78
2022/07/24 08:43:42;;;;;;;14.50;12.15;;;;;;;;;;5022183;28;20022;-78
2022/07/24 08:46:12;;;;;;;14.95;10.27;;;;;;;;;;5059910;28;20014;-77
2022/07/24 08:48:43;;;;;;;15.82;11.43;;;;;;;;;;5018813;28;20037;-77
2022/07/24 08:51:09;;;;;;;15.13;10.98;;;;;;;;;;5032029;28;20025;-77
2022/07/24 08:53:36;;;;;;;15.23;10.35;;;;;;;;;;5031612;28;20052;-78
2022/07/24 08:56:02;;;;;;;17.33;10.27;;;;;;;;;;5029859;28;20095;-78
2022/07/24 08:58:28;;;;;;;11.98;9.82;;;;;;;;;;5042298;28;20104;-77
2022/07/24 09:00:54;;;;;;;12.88;8.68;;;;;;;;;;5031681;28;20025;-78
2022/07/24 09:03:20;;;;;;;11.18;9.88;;;;;;;;;;5031650;28;20021;-78
2022/07/24 09:05:52;;;;;;;18.15;9.63;;;;;;;;;;5030384;28;20029;-77
2022/07/24 09:08:18;;;;;;;;;;;;;;;;;;5030186;28;20045;-79
2022/07/24 09:11:06;;;;;;;10.48;7.97;;;;;;;;;;5030868;28;19992;-78
2022/07/24 09:16:22;;;;;;;13.13;10.35;;;;;;;;;;5035069;28;20068;-74
2022/07/24 09:18:48;;;;;;;17.40;14.43;;;;;;;;;;5034848;28;20038;-75
2022/07/24 09:21:15;;;;;;;16.15;10.15;;;;;;;;;;5034801;28;20022;-75
2022/07/24 09:23:42;;;;;;;18.23;14.82;;;;;;;;;;5032151;28;20015;-75
2022/07/24 09:26:08;;;;;;;13.95;10.00;;;;;;;;;;5034643;28;20049;-75
2022/07/24 09:28:50;;;;;;;14.48;10.60;;;;;;;;;;5033924;28;20021;-76
2022/07/24 09:31:17;;;;;;;14.60;10.50;;;;;;;;;;5034114;28;20037;-75
2022/07/24 09:33:43;;;;;;;12.00;10.52;;;;;;;;;;5034458;28;20021;-75
2022/07/24 09:36:13;;;;;;;14.63;9.85;;;;;;;;;;5034336;28;20105;-75
2022/07/24 09:38:44;;;;;;;11.73;9.70;;;;;;;;;;5033202;28;20013;-75
2022/07/24 09:41:10;;;;;;;13.52;9.48;;;;;;;;;;5034190;28;20156;-76
2022/07/24 09:43:38;;;;;;;13.85;8.07;;;;;;;;;;5033988;28;20028;-78
2022/07/24 09:46:11;;;;;;;13.30;8.93;;;;;;;;;;5033008;28;20022;-79
2022/07/24 09:48:38;;;;;;;;;;;;;;;;;;5034981;28;20488;-78
2022/07/24 09:51:14;;;;;;;16.92;11.32;;;;;;;;;;5033497;28;19909;-79
2022/07/24 09:53:41;;;;;;;18.55;11.38;;;;;;;;;;5033776;28;20017;-77
2022/07/24 09:56:07;;;;;;;13.27;8.73;;;;;;;;;;5033196;28;20034;-78
2022/07/24 09:58:35;;;;;;;19.20;11.55;;;;;;;;;;5042015;28;20014;-79
2022/07/24 10:01:01;;;;;;;12.75;9.98;;;;;;;;;;5034097;28;20025;-80
2022/07/24 10:03:29;;;;;;;13.30;9.27;;;;;;;;;;5031931;28;20421;-78
2022/07/24 10:05:58;;;;;;;12.63;10.38;;;;;;;;;;5032751;28;20025;-79
2022/07/24 10:08:24;;;;;;;17.88;9.48;;;;;;;;;;5032622;28;20470;-79
2022/07/24 10:10:50;;;;;;;19.90;11.43;;;;;;;;;;5031627;28;20087;-78
2022/07/24 10:13:17;;;;;;;12.65;10.30;;;;;;;;;;5032849;28;20052;-79
2022/07/24 10:15:53;;;;;;;15.18;12.07;;;;;;;;;;5032728;28;20029;-78
2022/07/24 10:18:19;;;;;;;12.65;10.20;;;;;;;;;;5034187;28;20109;-79
2022/07/24 10:20:46;;;;;;;10.25;7.63;;;;;;;;;;5033875;28;20009;-77
2022/07/24 10:23:24;;;;;;;13.38;8.93;;;;;;;;;;5034152;28;20445;-78
2022/07/24 10:25:53;;;;;;;13.77;10.18;;;;;;;;;;5033297;28;20017;-76
2022/07/24 10:28:25;;;;;;;11.55;9.48;;;;;;;;;;5023496;28;20029;-78
2022/07/24 10:30:51;;;;;;;8.90;7.17;;;;;;;;;;5031746;28;20025;-77
2022/07/24 10:33:17;;;;;;;11.23;8.57;;;;;;;;;;5033958;28;20033;-77
2022/07/24 10:35:45;;;;;;;13.80;9.60;;;;;;;;;;5033480;28;20163;-77
2022/07/24 10:38:16;;;;;;;8.70;6.60;;;;;;;;;;5025904;28;20018;-77
2022/07/24 10:40:45;;;;;;;9.30;8.00;;;;;;;;;;5028345;28;20029;-77
2022/07/24 10:43:12;;;;;;;11.60;8.05;;;;;;;;;;5020124;28;20021;-79
2022/07/24 10:45:43;;;;;;;11.02;9.93;;;;;;;;;;5028929;28;20153;-77
2022/07/24 10:48:21;;;;;;;11.32;9.07;;;;;;;;;;5029571;28;20516;-78
2022/07/24 10:50:59;;;;;;;10.00;8.85;;;;;;;;;;5033510;28;20029;-77
2022/07/24 10:53:38;;;;;;;12.13;10.75;;;;;;;;;;5033555;28;20025;-77
2022/07/24 10:56:48;;;;;;;8.15;6.82;;;;;;;;;;5033584;28;20423;-77
2022/07/24 10:59:15;;;;;;;13.30;8.50;;;;;;;;;;5018685;28;20085;-77
2022/07/24 11:01:44;;;;;;;10.88;7.90;;;;;;;;;;5013990;28;20501;-77
2022/07/24 11:04:20;;;;;;;11.75;9.02;;;;;;;;;;5020605;28;20396;-77
2022/07/24 11:06:49;;;;;;;11.23;7.95;;;;;;;;;;5031696;28;20022;-77
2022/07/24 11:09:15;;;;;;;9.65;7.15;;;;;;;;;;5021398;28;20136;-77
2022/07/24 11:11:42;;;;;;;8.60;6.00;;;;;;;;;;5033033;28;20022;-77
2022/07/24 11:14:09;;;;;;;9.65;6.97;;;;;;;;;;5033056;28;20021;-77
2022/07/24 11:16:35;;;;;;;12.90;7.82;;;;;;;;;;5033468;28;20333;-78
2022/07/24 11:19:01;;;;;;;9.07;6.82;;;;;;;;;;5032826;28;20053;-77
2022/07/24 11:21:35;;;;;;;6.22;5.55;;;;;;;;;;5033328;28;20033;-78
2022/07/24 11:24:17;;;;;;;12.85;6.43;;;;;;;;;;5031221;28;20033;-78
2022/07/24 11:26:53;;;;;;;8.45;5.18;;;;;;;;;;5019263;28;20024;-76
2022/07/24 11:29:21;;;;;;;8.50;6.65;;;;;;;;;;5033021;28;20029;-79
2022/07/24 11:31:48;;;;;;;13.43;5.38;;;;;;;;;;5032763;28;20535;-77
2022/07/24 11:34:14;;;;;;;7.20;6.10;;;;;;;;;;5032730;28;20033;-78
2022/07/24 11:36:42;;;;;;;6.60;4.57;;;;;;;;;;5030262;28;20017;-77
2022/07/24 11:39:08;;;;;;;9.45;5.25;;;;;;;;;;5031777;28;20075;-78
2022/07/24 11:41:45;;;;;;;9.30;6.93;;;;;;;;;;5031962;28;20437;-78
2022/07/24 11:44:11;;;;;;;7.38;5.20;;;;;;;;;;5031897;28;20036;-77
2022/07/24 11:46:39;;;;;;;8.45;6.10;;;;;;;;;;5031093;28;20022;-78
2022/07/24 11:49:06;;;;;;;8.07;6.57;;;;;;;;;;5031993;28;20021;-77
2022/07/24 11:51:32;;;;;;;8.40;6.75;;;;;;;;;;5032530;28;20134;-76
2022/07/24 11:53:58;;;;;;;5.55;4.95;;;;;;;;;;5032530;28;20377;-78
2022/07/24 11:56:24;;;;;;;8.88;6.05;;;;;;;;;;5032307;28;20100;-76
2022/07/24 11:58:50;;;;;;;6.78;5.72;;;;;;;;;;5032284;28;20032;-78
2022/07/24 12:01:23;;;;;;;8.40;6.78;;;;;;;;;;5040677;28;20025;-77
2022/07/24 12:03:54;;;;;;;12.70;5.72;;;;;;;;;;5031063;28;20432;-77
2022/07/24 12:06:20;;;;;;;9.07;6.03;;;;;;;;;;5032016;28;20067;-76
2022/07/24 12:08:46;;;;;;;8.13;5.93;;;;;;;;;;5032286;28;20054;-77
2022/07/24 12:11:21;;;;;;;6.15;5.55;;;;;;;;;;5032027;28;20487;-78
2022/07/24 12:13:47;;;;;;;8.25;5.63;;;;;;;;;;5031453;28;20021;-76
2022/07/24 12:16:22;;;;;;;8.02;6.10;;;;;;;;;;5029641;28;20033;-75
2022/07/24 12:18:49;;;;;;;7.43;5.18;;;;;;;;;;5029272;28;20136;-75
2022/07/24 12:21:15;;;;;;;7.18;6.43;;;;;;;;;;5030240;28;20449;-77
2022/07/24 12:23:41;;;;;;;10.07;6.68;;;;;;;;;;5031285;28;20484;-78
2022/07/24 12:26:07;;;;;;;9.18;7.20;;;;;;;;;;5028944;28;20517;-76
2022/07/24 12:28:33;;;;;;;11.05;8.10;;;;;;;;;;5031391;28;20498;-75
2022/07/24 12:31:06;;;;;;;9.15;5.45;;;;;;;;;;5031519;28;20017;-76
2022/07/24 12:33:33;;;;;;;11.30;7.90;;;;;;;;;;5028231;28;20101;-78
2022/07/24 12:36:00;;;;;;;9.60;5.45;;;;;;;;;;5028928;28;20048;-75
2022/07/24 12:38:34;;;;;;;12.57;8.20;;;;;;;;;;5031646;28;20021;-79
2022/07/24 12:41:04;;;;;;;11.02;6.82;;;;;;;;;;5028505;28;20057;-77
2022/07/24 12:43:30;;;;;;;9.38;6.70;;;;;;;;;;5031748;28;20119;-77
2022/07/24 12:46:10;;;;;;;10.90;8.05;;;;;;;;;;5031282;28;20105;-75
2022/07/24 12:48:36;;;;;;;9.18;6.70;;;;;;;;;;5035706;28;20389;-75
2022/07/24 12:51:02;;;;;;;8.35;5.70;;;;;;;;;;5030938;28;20469;-75
2022/07/24 12:53:29;;;;;;;7.47;6.18;;;;;;;;;;5030877;28;20029;-75
2022/07/24 12:56:21;;;;;;;6.05;5.20;;;;;;;;;;5029380;28;20109;-75
2022/07/24 12:58:58;;;;;;;19.20;6.05;;;;;;;;;;5027896;28;20060;-74
2022/07/24 13:01:26;;;;;;;7.18;6.20;;;;;;;;;;5040141;28;20026;-74
2022/07/24 13:03:59;;;;;;;8.65;6.25;;;;;;;;;;5030870;28;20022;-76
2022/07/24 13:06:32;;;;;;;5.78;4.82;;;;;;;;;;5031352;28;20033;-75
2022/07/24 13:08:58;;;;;;;7.05;4.93;;;;;;;;;;5031269;28;20065;-75
2022/07/24 13:11:24;;;;;;;7.05;5.07;;;;;;;;;;5031127;28;20021;-74
2022/07/24 13:13:50;;;;;;;9.52;5.63;;;;;;;;;;5031215;28;20018;-76
2022/07/24 13:16:17;;;;;;;7.57;5.72;;;;;;;;;;5030704;28;20120;-74
2022/07/24 13:18:43;;;;;;;8.70;5.38;;;;;;;;;;5026909;28;20018;-78
2022/07/24 13:21:09;;;;;;;5.43;4.25;;;;;;;;;;5028978;28;20025;-78
2022/07/24 13:23:35;;;;;;;8.45;5.20;;;;;;;;;;5026207;28;20101;-79
2022/07/24 13:26:01;;;;;;;6.95;5.95;;;;;;;;;;5021825;28;20127;-78
2022/07/24 13:28:27;;;;;;;8.77;5.53;;;;;;;;;;5030777;28;20075;-76
2022/07/24 13:30:53;;;;;;;9.63;6.50;;;;;;;;;;5030337;28;20048;-76
2022/07/24 13:33:19;;;;;;;9.05;6.82;;;;;;;;;;5030860;28;20017;-77
2022/07/24 13:35:45;;;;;;;6.55;4.93;;;;;;;;;;5028947;28;20099;-76
2022/07/24 13:38:11;;;;;;;8.88;7.00;;;;;;;;;;5030119;28;20021;-77
2022/07/24 13:40:37;;;;;;;6.25;4.97;;;;;;;;;;5030515;28;20014;-77
2022/07/24 13:43:03;;;;;;;7.03;6.18;;;;;;;;;;5029158;28;20071;-79
2022/07/24 13:45:29;;;;;;;7.30;5.57;;;;;;;;;;5030064;28;20066;-77
2022/07/24 13:47:55;;;;;;;10.15;6.70;;;;;;;;;;5029078;28;20021;-77
2022/07/24 13:50:21;;;;;;;7.65;5.88;;;;;;;;;;5030388;28;20033;-76
2022/07/24 13:52:47;;;;;;;7.32;5.90;;;;;;;;;;5030488;28;20022;-79
2022/07/24 13:55:13;;;;;;;8.35;5.57;;;;;;;;;;5028731;28;20145;-77
2022/07/24 13:57:39;;;;;;;7.68;4.80;;;;;;;;;;5029999;28;20014;-77
2022/07/24 14:00:06;;;;;;;8.18;6.55;;;;;;;;;;5030681;28;20107;-76
2022/07/24 14:02:32;;;;;;;11.05;6.15;;;;;;;;;;5043398;28;20100;-79
2022/07/24 14:04:58;;;;;;;8.50;6.20;;;;;;;;;;5034644;28;20101;-78
2022/07/24 14:07:24;;;;;;;9.02;6.43;;;;;;;;;;5031789;28;20079;-79
2022/07/24 14:09:50;;;;;;;8.38;7.00;;;;;;;;;;5031046;28;20045;-78
2022/07/24 14:12:16;;;;;;;5.95;5.00;;;;;;;;;;5034346;28;20026;-77
2022/07/24 14:14:42;;;;;;;9.30;7.00;;;;;;;;;;5019464;28;20038;-76
2022/07/24 14:17:08;;;;;;;9.40;8.68;;;;;;;;;;5032246;28;20010;-76
2022/07/24 14:19:34;;;;;;;9.82;8.82;;;;;;;;;;5034135;28;20070;-75
2022/07/24 14:22:00;;;;;;;8.55;7.13;;;;;;;;;;5034376;28;20091;-77
2022/07/24 14:24:26;;;;;;;10.20;8.55;;;;;;;;;;5032537;28;20431;-76